Time;durP1;ratioP1;P1;durP2;ratioP2;P2;SDS_P1;SDS_P2;PMS_P1;PMS_P2;Temp;Humidity;BMP_temperature;BMP_pressure;BME280_temperature;BME280_humidity;BME280_pressure;Samples;Min_cycle;Max_cycle;Signal;HPM_P1;HPM_P2
2022/04/10 00:00:49;;;;;;;4.72;2.38;;;3.30;81.60;;;;;;4946050;28;20070;-78
2022/04/10 00:03:15;;;;;;;3.90;2.22;;;3.20;81.70;;;;;;4954422;28;20035;-79
2022/04/10 00:05:40;;;;;;;6.30;2.60;;;3.20;81.80;;;;;;4974175;28;20050;-81
2022/04/10 00:08:06;;;;;;;8.60;4.40;;;3.20;81.90;;;;;;4951016;28;20080;-77
2022/04/10 00:10:32;;;;;;;8.02;4.57;;;3.10;81.90;;;;;;4978466;28;20042;-80
2022/04/10 00:12:58;;;;;;;10.07;4.93;;;3.10;82.00;;;;;;4931768;28;20038;-81
2022/04/10 00:15:23;;;;;;;7.85;4.38;;;3.10;82.10;;;;;;4922674;28;20432;-80
2022/04/10 00:17:49;;;;;;;4.55;3.42;;;3.10;82.20;;;;;;4968825;28;20026;-79
2022/04/10 00:20:14;;;;;;;3.75;3.20;;;3.10;82.20;;;;;;4920064;28;20051;-78
2022/04/10 00:22:44;;;;;;;4.32;3.35;;;3.10;82.30;;;;;;4947789;28;20050;-77
2022/04/10 00:25:11;;;;;;;4.35;3.42;;;3.10;82.40;;;;;;4948450;28;20196;-81
2022/04/10 00:27:37;;;;;;;4.25;3.08;;;3.00;82.40;;;;;;4942064;28;20093;-77
2022/04/10 00:30:03;;;;;;;5.25;2.20;;;3.00;82.40;;;;;;4939299;28;20026;-77
2022/04/10 00:32:31;;;;;;;3.13;2.30;;;3.00;83.20;;;;;;4975535;28;20072;-82
2022/04/10 00:34:57;;;;;;;4.15;2.20;;;3.00;82.60;;;;;;4902134;28;20031;-79
2022/04/10 00:37:22;;;;;;;4.07;2.00;;;3.00;82.60;;;;;;4959173;28;20035;-80
2022/04/10 00:39:48;;;;;;;4.63;2.17;;;2.90;82.60;;;;;;4924650;28;20034;-81
2022/04/10 00:42:13;;;;;;;3.90;1.98;;;2.90;82.60;;;;;;4964541;28;20031;-79
2022/04/10 00:44:39;;;;;;;2.10;1.80;;;2.90;82.70;;;;;;4952807;28;20050;-82
2022/04/10 00:47:05;;;;;;;2.42;1.75;;;2.90;82.70;;;;;;4984417;28;20031;-83
2022/04/10 00:49:31;;;;;;;3.65;1.60;;;2.90;82.80;;;;;;4933196;28;20120;-82
2022/04/10 00:51:57;;;;;;;4.20;2.10;;;2.80;82.80;;;;;;4919938;28;20118;-82
2022/04/10 00:54:25;;;;;;;3.45;1.90;;;2.80;82.90;;;;;;4931974;28;20045;-81
2022/04/10 00:56:51;;;;;;;6.50;2.10;;;2.80;83.10;;;;;;4960002;28;20074;-82
2022/04/10 00:59:16;;;;;;;3.40;2.13;;;2.80;83.00;;;;;;4945056;28;20042;-80
2022/04/10 01:01:45;;;;;;;2.58;2.08;;;2.80;83.10;;;;;;4906411;28;20482;-81
2022/04/10 01:04:14;;;;;;;4.57;2.28;;;2.80;83.20;;;;;;4953027;28;20070;-81
2022/04/10 01:06:40;;;;;;;3.80;1.95;;;2.80;83.20;;;;;;4963909;28;20085;-80
2022/04/10 01:09:06;;;;;;;5.63;2.42;;;2.80;83.30;;;;;;4957792;28;20046;-80
2022/04/10 01:11:35;;;;;;;3.50;2.03;;;2.90;83.30;;;;;;4940590;28;20148;-80
2022/04/10 01:14:01;;;;;;;7.60;2.60;;;2.90;84.20;;;;;;4943057;28;20031;-77
2022/04/10 01:16:28;;;;;;;4.35;2.65;;;2.80;83.40;;;;;;4956549;28;20053;-78
2022/04/10 01:18:53;;;;;;;2.20;2.00;;;2.80;83.50;;;;;;4950443;28;20054;-80
2022/04/10 01:21:23;;;;;;;3.20;2.17;;;2.80;83.50;;;;;;4928967;28;20788;-78
2022/04/10 01:23:49;;;;;;;4.30;2.47;;;2.80;83.60;;;;;;4948518;28;20381;-77
2022/04/10 01:26:15;;;;;;;3.28;2.20;;;2.80;83.60;;;;;;4952706;28;20030;-77
2022/04/10 01:28:59;;;;;;;4.57;2.35;;;2.80;83.70;;;;;;4940900;28;20061;-79
2022/04/10 01:31:26;;;;;;;5.55;3.22;;;2.80;84.00;;;;;;4952493;28;20057;-80
2022/04/10 01:33:51;;;;;;;2.88;2.42;;;2.80;83.70;;;;;;4965593;28;20065;-79
2022/04/10 01:36:17;;;;;;;6.00;2.70;;;2.80;83.70;;;;;;4924050;28;20030;-78
2022/04/10 01:38:43;;;;;;;5.93;2.60;;;2.70;83.70;;;;;;4943700;28;20039;-81
2022/04/10 01:41:15;;;;;;;4.28;2.45;;;2.80;83.80;;;;;;4967828;28;20041;-82
2022/04/10 01:43:47;;;;;;;3.70;2.65;;;2.70;83.90;;;;;;4949966;28;20069;-83
2022/04/10 01:46:13;;;;;;;4.43;2.30;;;2.70;83.90;;;;;;4949990;28;20030;-81
2022/04/10 01:48:39;;;;;;;3.78;2.35;;;2.70;83.90;;;;;;4961715;28;20178;-82
2022/04/10 01:51:05;;;;;;;6.82;3.15;;;2.70;83.90;;;;;;4942907;28;20062;-79
2022/04/10 01:53:30;;;;;;;6.47;2.63;;;2.70;84.00;;;;;;4957660;28;20077;-78
2022/04/10 01:55:56;;;;;;;5.65;2.28;;;2.70;84.00;;;;;;4936947;28;20039;-78
2022/04/10 01:58:21;;;;;;;3.60;2.20;;;2.70;84.00;;;;;;4957960;28;20370;-79
2022/04/10 02:00:47;;;;;;;2.65;2.28;;;2.60;84.00;;;;;;4937922;28;20046;-79
2022/04/10 02:03:13;;;;;;;4.85;2.80;;;2.60;84.00;;;;;;4952721;28;20038;-80
2022/04/10 02:05:38;;;;;;;3.88;2.47;;;2.60;84.00;;;;;;4955769;28;20114;-79
2022/04/10 02:08:04;;;;;;;3.50;2.20;;;2.60;84.10;;;;;;4945574;28;20117;-78
2022/04/10 02:10:29;;;;;;;8.88;2.58;;;2.60;84.10;;;;;;4934222;28;20653;-82
2022/04/10 02:12:55;;;;;;;5.55;2.05;;;2.60;84.20;;;;;;4941095;28;20035;-79
2022/04/10 02:15:20;;;;;;;5.30;2.67;;;2.60;84.20;;;;;;4940115;28;20064;-79
2022/04/10 02:17:46;;;;;;;3.17;1.83;;;2.60;84.20;;;;;;4951457;28;20025;-79
2022/04/10 02:20:11;;;;;;;5.35;2.47;;;2.50;84.10;;;;;;4951439;28;20055;-79
2022/04/10 02:22:37;;;;;;;2.85;2.03;;;2.50;84.20;;;;;;4939128;28;20654;-79
2022/04/10 02:25:03;;;;;;;11.45;2.55;;;2.50;84.20;;;;;;4965602;28;20026;-78
2022/04/10 02:27:28;;;;;;;5.07;2.20;;;2.50;84.20;;;;;;4961104;28;20468;-81
2022/04/10 02:29:54;;;;;;;4.75;1.92;;;2.50;84.20;;;;;;4949384;28;20116;-78
2022/04/10 02:32:19;;;;;;;5.22;2.20;;;2.50;84.20;;;;;;4959620;28;20117;-78
2022/04/10 02:34:45;;;;;;;4.05;2.15;;;2.50;84.20;;;;;;4963715;28;20035;-83
2022/04/10 02:37:10;;;;;;;6.53;2.45;;;2.40;84.20;;;;;;4919069;28;20531;-83
2022/04/10 02:39:36;;;;;;;3.92;2.33;;;2.40;84.30;;;;;;4951839;28;20062;-81
2022/04/10 02:42:02;;;;;;;6.50;2.20;;;2.40;84.30;;;;;;4943514;28;20063;-81
2022/04/10 02:44:27;;;;;;;6.38;2.08;;;2.40;84.40;;;;;;4978062;28;20039;-82
2022/04/10 02:46:53;;;;;;;2.88;2.53;;;2.40;84.40;;;;;;4938769;28;20030;-82
2022/04/10 02:49:19;;;;;;;6.78;2.30;;;2.40;84.50;;;;;;4930645;28;20058;-82
2022/04/10 02:51:47;;;;;;;5.90;2.10;;;2.30;84.50;;;;;;4971157;28;20037;-80
2022/04/10 02:54:13;;;;;;;7.15;2.28;;;2.30;84.50;;;;;;4968328;28;20073;-82
2022/04/10 02:56:38;;;;;;;5.30;1.90;;;2.30;84.50;;;;;;4952546;28;20038;-80
2022/04/10 02:59:04;;;;;;;6.13;2.17;;;2.20;84.40;;;;;;4951986;28;20035;-81
2022/04/10 03:01:29;;;;;;;4.25;2.30;;;2.20;84.50;;;;;;4962885;28;20052;-82
2022/04/10 03:03:55;;;;;;;7.95;2.63;;;2.10;84.50;;;;;;4955431;28;20056;-81
2022/04/10 03:06:21;;;;;;;3.30;1.90;;;2.10;84.60;;;;;;4938571;28;20042;-78
2022/04/10 03:08:46;;;;;;;4.25;1.90;;;2.10;84.70;;;;;;4954573;28;20125;-80
2022/04/10 03:11:12;;;;;;;4.30;2.17;;;2.00;84.60;;;;;;4958458;28;20089;-81
2022/04/10 03:13:37;;;;;;;5.10;1.88;;;2.00;84.70;;;;;;4947435;28;21286;-79
2022/04/10 03:16:03;;;;;;;2.50;1.67;;;2.00;84.70;;;;;;4953022;28;20351;-81
2022/04/10 03:18:29;;;;;;;6.28;1.83;;;2.00;84.70;;;;;;4942055;28;20042;-80
2022/04/10 03:20:54;;;;;;;4.68;2.13;;;2.00;84.80;;;;;;4964512;28;20554;-82
2022/04/10 03:23:20;;;;;;;4.43;1.67;;;1.90;84.80;;;;;;4925300;28;20050;-82
2022/04/10 03:25:45;;;;;;;5.53;2.50;;;2.00;84.80;;;;;;4966570;28;20038;-77
2022/04/10 03:28:11;;;;;;;4.03;1.63;;;1.90;84.80;;;;;;4983165;28;20053;-81
2022/04/10 03:30:36;;;;;;;4.18;3.28;;;1.90;84.80;;;;;;4974201;28;20030;-80
2022/04/10 03:33:02;;;;;;;3.58;2.30;;;1.90;84.90;;;;;;4944140;28;20038;-82
2022/04/10 03:35:27;;;;;;;5.45;2.28;;;1.80;84.80;;;;;;4947483;28;20042;-79
2022/04/10 03:37:53;;;;;;;6.43;1.73;;;1.80;84.90;;;;;;4948120;28;20034;-80
2022/04/10 03:40:18;;;;;;;3.45;1.63;;;1.80;84.90;;;;;;4945662;28;20118;-81
2022/04/10 03:42:44;;;;;;;3.13;1.77;;;1.80;84.90;;;;;;4951081;28;20114;-80
2022/04/10 03:45:10;;;;;;;6.10;1.83;;;1.80;85.00;;;;;;4941022;28;20058;-78
2022/04/10 03:47:36;;;;;;;5.18;1.60;;;1.80;84.90;;;;;;4977299;28;20033;-78
2022/04/10 03:50:03;;;;;;;3.45;1.75;;;1.70;85.70;;;;;;4954618;28;20081;-78
2022/04/10 03:52:28;;;;;;;3.10;2.00;;;1.70;84.90;;;;;;4950260;28;20062;-78
2022/04/10 03:54:54;;;;;;;5.93;1.60;;;1.70;85.00;;;;;;4979229;28;20034;-78
2022/04/10 03:57:19;;;;;;;4.90;1.77;;;1.70;85.10;;;;;;4921485;28;20039;-80
2022/04/10 03:59:45;;;;;;;2.90;1.55;;;1.70;85.00;;;;;;4924872;28;20117;-79
2022/04/10 04:02:15;;;;;;;2.50;1.40;;;1.70;85.00;;;;;;4965982;28;20046;-78
2022/04/10 04:04:40;;;;;;;4.22;1.80;;;1.70;85.10;;;;;;4940487;28;20054;-78
2022/04/10 04:07:06;;;;;;;4.47;1.70;;;1.60;85.00;;;;;;4948318;28;20030;-80
2022/04/10 04:09:31;;;;;;;5.10;2.33;;;1.60;85.10;;;;;;4950477;28;20062;-79
2022/04/10 04:11:57;;;;;;;3.40;1.85;;;1.60;85.10;;;;;;4945604;28;20046;-78
2022/04/10 04:14:22;;;;;;;4.13;1.63;;;1.60;85.20;;;;;;4947222;28;20034;-79
2022/04/10 04:16:48;;;;;;;4.35;1.58;;;1.60;85.10;;;;;;4956925;28;20376;-80
2022/04/10 04:19:13;;;;;;;7.32;2.30;;;1.50;85.10;;;;;;4957181;28;20428;-78
2022/04/10 04:21:39;;;;;;;3.97;1.88;;;1.50;85.20;;;;;;4952068;28;20445;-78
2022/04/10 04:24:04;;;;;;;4.00;2.10;;;1.50;85.20;;;;;;4971458;28;20061;-81
2022/04/10 04:26:30;;;;;;;2.78;2.22;;;1.50;86.00;;;;;;4966982;28;20062;-81
2022/04/10 04:28:55;;;;;;;3.70;1.67;;;1.50;85.20;;;;;;4919869;28;20030;-81
2022/04/10 04:31:21;;;;;;;7.50;2.42;;;1.50;85.30;;;;;;4965387;28;20049;-80
2022/04/10 04:33:46;;;;;;;2.75;1.85;;;1.50;85.40;;;;;;4965041;28;20509;-81
2022/04/10 04:36:12;;;;;;;3.80;2.22;;;1.50;85.40;;;;;;4939079;28;20531;-81
2022/04/10 04:38:38;;;;;;;5.20;2.05;;;1.50;85.50;;;;;;4982354;28;20161;-80
2022/04/10 04:41:03;;;;;;;9.32;2.40;;;1.50;85.50;;;;;;4950964;28;20081;-81
2022/04/10 04:43:29;;;;;;;6.45;2.50;;;1.50;85.50;;;;;;4953810;28;20037;-80
2022/04/10 04:45:54;;;;;;;4.03;2.45;;;1.50;85.50;;;;;;4959114;28;20077;-80
2022/04/10 04:48:20;;;;;;;4.05;2.40;;;1.50;85.60;;;;;;4935212;28;20046;-80
2022/04/10 04:50:47;;;;;;;4.22;2.45;;;1.50;85.60;;;;;;4950093;28;20037;-80
2022/04/10 04:53:12;;;;;;;4.55;2.25;;;1.50;85.60;;;;;;4956625;28;20053;-81
2022/04/10 04:55:48;;;;;;;5.20;2.22;;;1.50;85.60;;;;;;4959006;28;20022;-80
2022/04/10 04:58:14;;;;;;;5.32;2.30;;;1.50;85.80;;;;;;4963494;28;20077;-81
2022/04/10 05:00:39;;;;;;;4.07;2.50;;;1.50;85.70;;;;;;4953743;28;20332;-82
2022/04/10 05:03:05;;;;;;;3.35;2.08;;;1.50;85.70;;;;;;4950080;28;20122;-81
2022/04/10 05:05:31;;;;;;;5.90;2.50;;;1.50;85.80;;;;;;4966698;28;20102;-81
2022/04/10 05:07:56;;;;;;;4.28;2.35;;;1.50;85.70;;;;;;4944180;28;20074;-79
2022/04/10 05:10:22;;;;;;;4.68;2.75;;;1.50;85.70;;;;;;4955273;28;20038;-81
2022/04/10 05:12:47;;;;;;;3.13;2.25;;;1.50;85.80;;;;;;4956560;28;20026;-82
2022/04/10 05:15:13;;;;;;;3.95;2.70;;;1.50;85.80;;;;;;4963236;28;20544;-78
2022/04/10 05:17:38;;;;;;;6.05;2.63;;;1.50;85.80;;;;;;4961489;28;20485;-79
2022/04/10 05:20:05;;;;;;;6.57;2.60;;;1.40;85.70;;;;;;4911164;28;20089;-80
2022/04/10 05:22:30;;;;;;;6.93;2.60;;;1.40;85.80;;;;;;4921632;28;20134;-80
2022/04/10 05:24:56;;;;;;;4.90;2.80;;;1.50;86.10;;;;;;4899339;28;20500;-81
2022/04/10 05:27:21;;;;;;;3.45;2.35;;;1.50;86.00;;;;;;4936106;28;20067;-79
2022/04/10 05:29:47;;;;;;;5.15;2.53;;;1.50;86.10;;;;;;4945211;28;20071;-80
2022/04/10 05:32:12;;;;;;;5.65;2.88;;;1.50;86.10;;;;;;4964478;28;20043;-81
2022/04/10 05:34:38;;;;;;;3.70;2.70;;;1.60;86.30;;;;;;4959384;28;20405;-79
2022/04/10 05:37:04;;;;;;;5.88;2.90;;;1.60;86.30;;;;;;4949545;28;20038;-80
2022/04/10 05:39:29;;;;;;;7.13;2.97;;;1.70;86.30;;;;;;4906881;28;20038;-81
2022/04/10 05:41:55;;;;;;;4.85;3.22;;;1.70;86.20;;;;;;4947359;28;20034;-80
2022/04/10 05:44:20;;;;;;;4.88;3.10;;;1.70;86.20;;;;;;4953927;28;20046;-81
2022/04/10 05:46:46;;;;;;;8.93;3.65;;;1.70;86.20;;;;;;4932079;28;20038;-82
2022/04/10 05:49:12;;;;;;;6.95;3.72;;;1.80;86.30;;;;;;4943895;28;20080;-79
2022/04/10 05:51:37;;;;;;;10.57;5.57;;;1.80;86.40;;;;;;4950811;28;20072;-81
2022/04/10 05:54:03;;;;;;;14.57;4.35;;;1.80;87.20;;;;;;4958415;28;20635;-81
2022/04/10 05:56:28;;;;;;;7.10;3.85;;;1.90;86.50;;;;;;4930348;28;20038;-80
2022/04/10 05:58:54;;;;;;;5.80;3.58;;;1.90;86.50;;;;;;4944483;28;20121;-80
2022/04/10 06:01:19;;;;;;;7.78;5.18;;;2.00;86.60;;;;;;4951926;28;20101;-81
2022/04/10 06:03:45;;;;;;;14.25;8.55;;;2.00;86.50;;;;;;4962635;28;20026;-79
2022/04/10 06:06:11;;;;;;;24.17;11.68;;;2.10;86.60;;;;;;4958229;28;20504;-79
2022/04/10 06:08:36;;;;;;;50.40;17.90;;;2.20;86.60;;;;;;4937920;28;20045;-79
2022/04/10 06:11:02;;;;;;;201.85;68.18;;;2.20;86.60;;;;;;4946116;28;20044;-80
2022/04/10 06:13:28;;;;;;;415.85;116.22;;;2.30;86.60;;;;;;4947246;28;20046;-79
2022/04/10 06:15:53;;;;;;;430.02;122.93;;;2.40;86.50;;;;;;4954491;28;20176;-80
2022/04/10 06:18:19;;;;;;;65.53;24.05;;;2.50;86.50;;;;;;4971494;28;20052;-81
2022/04/10 06:20:45;;;;;;;293.52;77.10;;;2.50;87.20;;;;;;4925871;28;20553;-80
2022/04/10 06:23:11;;;;;;;173.15;52.60;;;2.60;86.40;;;;;;4967834;28;20059;-80
2022/04/10 06:25:37;;;;;;;66.13;27.80;;;2.70;86.40;;;;;;4925642;28;20060;-81
2022/04/10 06:28:03;;;;;;;26.75;11.43;;;2.80;86.30;;;;;;4939123;28;20118;-80
2022/04/10 06:30:29;;;;;;;53.13;20.75;;;2.90;86.20;;;;;;4946000;28;20449;-81
2022/04/10 06:32:54;;;;;;;19.45;10.20;;;3.00;86.20;;;;;;4968443;28;20048;-80
2022/04/10 06:35:20;;;;;;;28.23;14.05;;;3.00;86.10;;;;;;4949651;28;20031;-80
2022/04/10 06:37:45;;;;;;;34.28;14.82;;;3.10;86.00;;;;;;4925585;28;20038;-80
2022/04/10 06:40:11;;;;;;;31.52;14.30;;;3.20;86.00;;;;;;4966619;28;20035;-80
2022/04/10 06:42:38;;;;;;;14.38;7.60;;;3.30;85.90;;;;;;4965015;28;20034;-80
2022/04/10 06:45:04;;;;;;;21.67;11.88;;;3.50;85.90;;;;;;4941072;28;20026;-80
2022/04/10 06:47:31;;;;;;;24.63;10.63;;;3.50;85.80;;;;;;4945447;28;20038;-79
2022/04/10 06:49:58;;;;;;;17.80;8.07;;;3.60;85.70;;;;;;4960715;28;20050;-79
2022/04/10 06:52:23;;;;;;;25.35;13.70;;;3.70;85.70;;;;;;4937368;28;20065;-79
2022/04/10 06:54:49;;;;;;;37.33;19.95;;;3.90;85.60;;;;;;4960236;28;20497;-79
2022/04/10 06:57:14;;;;;;;16.80;9.38;;;3.90;85.50;;;;;;4946684;28;20501;-79
2022/04/10 06:59:40;;;;;;;12.40;5.18;;;4.00;85.40;;;;;;4932346;28;20042;-80
2022/04/10 07:02:05;;;;;;;16.27;9.10;;;4.20;85.40;;;;;;4934923;28;20045;-79
2022/04/10 07:04:31;;;;;;;18.00;11.05;;;4.30;85.20;;;;;;4917571;28;20457;-79
2022/04/10 07:06:56;;;;;;;10.48;4.20;;;4.40;85.00;;;;;;4926997;28;20114;-79
2022/04/10 07:09:22;;;;;;;8.63;5.50;;;4.50;84.90;;;;;;4937745;28;20038;-79
2022/04/10 07:11:47;;;;;;;10.18;5.38;;;4.70;84.70;;;;;;4955876;28;20607;-79
2022/04/10 07:14:13;;;;;;;15.13;6.97;;;4.80;84.60;;;;;;4962435;28;20113;-79
2022/04/10 07:16:38;;;;;;;13.80;6.78;;;4.90;84.40;;;;;;4960483;28;20507;-79
2022/04/10 07:19:06;;;;;;;21.48;9.70;;;5.10;84.30;;;;;;4949019;28;20035;-80
2022/04/10 07:24:15;;;;;;;8.93;3.60;;;5.40;83.80;;;;;;4954503;28;20089;-79
2022/04/10 07:26:41;;;;;;;7.38;3.38;;;5.50;83.20;;;;;;4955527;28;20054;-80
2022/04/10 07:29:10;;;;;;;6.40;3.60;;;5.60;82.90;;;;;;4916593;28;20082;-79
2022/04/10 07:31:35;;;;;;;18.17;6.78;;;5.60;82.70;;;;;;4928381;28;20042;-79
2022/04/10 07:34:01;;;;;;;14.10;7.70;;;5.70;82.50;;;;;;4954519;28;20042;-79
2022/04/10 07:36:27;;;;;;;15.20;9.68;;;5.70;82.40;;;;;;4960711;28;20050;-79
2022/04/10 07:38:52;;;;;;;27.00;15.73;;;5.80;82.30;;;;;;4951546;28;20039;-79
2022/04/10 07:41:18;;;;;;;11.40;4.50;;;5.90;82.20;;;;;;4935904;28;20107;-79
2022/04/10 07:43:43;;;;;;;5.85;3.53;;;5.90;81.90;;;;;;4953460;28;20129;-79
2022/04/10 07:48:53;;;;;;;14.57;6.88;;;6.10;81.60;;;;;;4962456;28;20045;-79
2022/04/10 07:51:18;;;;;;;22.17;10.77;;;6.10;81.40;;;;;;4945107;28;20054;-80
2022/04/10 07:53:44;;;;;;;22.27;11.57;;;6.20;81.20;;;;;;4935831;28;20765;-80
2022/04/10 07:56:09;;;;;;;12.95;3.50;;;6.30;80.90;;;;;;4964010;28;20777;-79
2022/04/10 07:58:36;;;;;;;8.65;3.83;;;6.40;80.60;;;;;;4945115;28;20042;-79
2022/04/10 08:01:02;;;;;;;10.85;4.50;;;6.40;80.30;;;;;;4956746;28;20656;-79
2022/04/10 08:03:28;;;;;;;10.23;5.25;;;6.50;80.10;;;;;;4934948;28;20120;-79
2022/04/10 08:05:54;;;;;;;9.55;5.50;;;6.50;80.00;;;;;;4966479;28;20137;-79
2022/04/10 08:08:19;;;;;;;7.75;3.80;;;6.60;79.90;;;;;;4945391;28;20815;-79
2022/04/10 08:10:45;;;;;;;5.60;3.80;;;6.70;79.90;;;;;;4945500;28;20050;-79
2022/04/10 08:13:11;;;;;;;6.78;3.55;;;6.80;79.70;;;;;;4959155;28;20038;-79
2022/04/10 08:15:36;;;;;;;6.88;3.85;;;6.90;79.50;;;;;;4973705;28;20051;-80
2022/04/10 08:18:02;;;;;;;6.70;2.17;;;7.00;79.40;;;;;;4927582;28;20117;-79
2022/04/10 08:20:27;;;;;;;6.82;4.13;;;7.00;79.20;;;;;;4918398;28;20035;-80
2022/04/10 08:22:53;;;;;;;7.53;3.30;;;7.20;79.00;;;;;;4932535;28;20034;-80
2022/04/10 08:25:23;;;;;;;5.00;2.30;;;7.30;78.80;;;;;;4946013;28;20053;-80
2022/04/10 08:27:49;;;;;;;5.60;2.13;;;7.50;78.70;;;;;;4936581;28;20065;-80
2022/04/10 08:30:14;;;;;;;6.22;2.15;;;7.70;78.40;;;;;;4907459;28;20062;-79
2022/04/10 08:32:42;;;;;;;5.00;1.85;;;7.80;78.00;;;;;;4957411;28;20077;-80
2022/04/10 08:35:08;;;;;;;5.78;1.55;;;8.00;77.80;;;;;;4923426;28;20039;-80
2022/04/10 08:37:34;;;;;;;3.83;1.77;;;8.20;77.10;;;;;;4950330;28;20032;-80
2022/04/10 08:39:59;;;;;;;4.20;1.83;;;8.30;76.70;;;;;;4919174;28;20035;-79
2022/04/10 08:42:25;;;;;;;3.83;1.40;;;8.40;76.40;;;;;;4966746;28;20043;-79
2022/04/10 08:44:51;;;;;;;7.10;2.15;;;8.60;76.30;;;;;;4982504;28;20038;-80
2022/04/10 08:47:21;;;;;;;5.63;1.83;;;8.80;76.00;;;;;;4920372;28;20039;-79
2022/04/10 08:49:49;;;;;;;7.18;1.73;;;8.90;75.60;;;;;;4923604;28;20051;-79
2022/04/10 08:52:16;;;;;;;5.03;1.45;;;9.00;75.10;;;;;;4928637;28;20065;-79
2022/04/10 08:54:43;;;;;;;3.45;1.60;;;9.10;74.90;;;;;;4956544;28;20691;-81
2022/04/10 08:57:08;;;;;;;4.05;1.25;;;9.40;74.80;;;;;;4935360;28;20050;-79
2022/04/10 08:59:34;;;;;;;4.65;1.63;;;9.40;74.30;;;;;;4909392;28;20596;-79
2022/04/10 09:01:59;;;;;;;5.43;1.40;;;9.60;74.20;;;;;;4922187;28;20113;-80
2022/04/10 09:04:25;;;;;;;1.75;1.00;;;9.70;73.80;;;;;;4955308;28;20066;-80
2022/04/10 09:06:58;;;;;;;5.53;1.55;;;9.90;73.40;;;;;;4913072;28;20469;-80
2022/04/10 09:09:24;;;;;;;4.47;1.30;;;10.00;72.40;;;;;;4924703;28;20043;-81
2022/04/10 09:11:52;;;;;;;6.47;4.55;;;10.10;72.20;;;;;;4953560;28;20125;-81
2022/04/10 09:14:28;;;;;;;6.20;3.85;;;10.20;71.60;;;;;;4940225;28;20063;-83
2022/04/10 09:17:09;;;;;;;6.78;2.10;;;10.20;71.20;;;;;;4969082;28;20144;-81
2022/04/10 09:19:36;;;;;;;3.92;1.95;;;10.30;70.70;;;;;;4905172;28;20134;-80
2022/04/10 09:22:22;;;;;;;4.07;3.72;;;10.40;71.10;;;;;;4907740;28;20031;-82
2022/04/10 09:25:13;;;;;;;4.72;1.80;;;10.40;69.40;;;;;;4941992;28;20044;-83
2022/04/10 09:27:40;;;;;;;5.90;1.50;;;10.40;69.50;;;;;;4924667;28;20039;-80
2022/04/10 09:30:07;;;;;;;4.28;1.42;;;10.50;70.20;;;;;;4881112;28;20046;-81
2022/04/10 09:33:02;;;;;;;5.22;1.35;;;10.60;69.80;;;;;;4929647;28;20049;-79
2022/04/10 09:35:27;;;;;;;2.38;1.02;;;10.80;68.80;;;;;;4942454;28;22017;-81
2022/04/10 09:37:54;;;;;;;3.28;2.28;;;11.00;69.20;;;;;;4963856;28;20701;-81
2022/04/10 09:40:30;;;;;;;3.80;1.00;;;11.00;68.60;;;;;;4951470;28;20093;-80
2022/04/10 09:43:10;;;;;;;3.47;1.05;;;11.10;67.50;;;;;;4968448;28;20121;-79
2022/04/10 09:45:36;;;;;;;2.22;1.15;;;11.20;67.20;;;;;;4944266;28;20405;-79
2022/04/10 09:48:28;;;;;;;8.00;1.30;;;11.30;67.80;;;;;;4961730;28;20586;-80
2022/04/10 09:50:58;;;;;;;4.93;1.15;;;11.50;66.50;;;;;;4926247;28;20045;-81
2022/04/10 09:53:24;;;;;;;1.92;1.15;;;11.70;67.10;;;;;;4919881;28;20042;-79
2022/04/10 09:55:54;;;;;;;3.17;1.17;;;11.90;66.80;;;;;;4960823;28;20805;-80
2022/04/10 09:58:19;;;;;;;3.95;1.38;;;12.00;66.00;;;;;;4940575;28;20043;-80
2022/04/10 10:00:45;;;;;;;3.75;1.35;;;12.10;65.70;;;;;;4945810;28;20048;-81
2022/04/10 10:03:11;;;;;;;3.40;0.88;;;12.10;65.30;;;;;;4952988;28;20877;-81
2022/04/10 10:05:37;;;;;;;5.75;1.48;;;12.20;65.10;;;;;;4969224;28;20034;-80
2022/04/10 10:08:03;;;;;;;3.88;0.98;;;12.30;64.80;;;;;;4938830;28;20117;-80
2022/04/10 10:10:30;;;;;;;2.10;0.80;;;12.30;64.30;;;;;;4943537;28;20022;-79
2022/04/10 10:12:56;;;;;;;3.00;0.85;;;12.30;63.90;;;;;;4932719;28;20134;-79
2022/04/10 10:15:22;;;;;;;2.75;1.08;;;12.30;64.40;;;;;;4897449;28;20494;-79
2022/04/10 10:17:48;;;;;;;3.72;1.20;;;12.30;63.40;;;;;;4950021;28;20031;-80
2022/04/10 10:20:14;;;;;;;3.85;1.00;;;12.40;63.20;;;;;;4932080;28;20133;-79
2022/04/10 10:22:40;;;;;;;6.80;1.73;;;12.40;63.30;;;;;;4924381;28;20125;-79
2022/04/10 10:25:09;;;;;;;5.03;1.50;;;12.50;63.20;;;;;;4939456;28;20035;-79
2022/04/10 10:28:12;;;;;;;4.53;1.10;;;12.60;62.80;;;;;;4924689;28;20031;-78
2022/04/10 10:31:14;;;;;;;6.53;1.45;;;12.80;61.80;;;;;;4955993;28;20041;-79
2022/04/10 10:33:47;;;;;;;3.85;0.95;;;12.90;61.20;;;;;;4942811;28;20046;-80
2022/04/10 10:36:12;;;;;;;3.10;1.00;;;13.10;62.20;;;;;;4947766;28;20492;-79
2022/04/10 10:38:40;;;;;;;4.45;0.98;;;13.30;61.80;;;;;;4927730;28;20053;-80
2022/04/10 10:41:12;;;;;;;6.55;1.17;;;13.30;61.30;;;;;;4910834;28;20129;-80
2022/04/10 10:43:37;;;;;;;3.72;1.00;;;13.40;60.20;;;;;;4945580;28;20037;-80
2022/04/10 10:46:03;;;;;;;2.78;1.15;;;13.40;60.50;;;;;;4946230;28;20038;-79
2022/04/10 10:48:31;;;;;;;3.80;1.10;;;13.50;60.50;;;;;;4938373;28;20532;-79
2022/04/10 10:51:23;;;;;;;4.50;1.23;;;13.60;60.20;;;;;;4940218;28;20049;-81
2022/04/10 10:53:52;;;;;;;2.80;1.10;;;13.70;59.70;;;;;;4942587;28;20041;-79
2022/04/10 10:56:27;;;;;;;1.60;0.90;;;13.80;59.50;;;;;;4945523;28;20039;-79
2022/04/10 10:58:54;;;;;;;3.25;1.08;;;13.90;59.60;;;;;;4940612;28;20042;-81
2022/04/10 11:01:23;;;;;;;3.35;1.20;;;14.10;59.10;;;;;;4950006;28;20650;-80
2022/04/10 11:04:07;;;;;;;5.35;2.45;;;14.20;58.70;;;;;;4967027;28;20034;-79
2022/04/10 11:06:45;;;;;;;4.22;1.40;;;14.30;57.60;;;;;;4952204;28;20104;-81
2022/04/10 11:09:21;;;;;;;7.50;1.58;;;14.50;57.60;;;;;;4925225;28;20394;-79
2022/04/10 11:11:48;;;;;;;6.80;1.25;;;14.70;57.40;;;;;;4933367;28;20403;-79
2022/04/10 11:14:41;;;;;;;3.60;1.40;;;14.80;57.90;;;;;;4950006;28;20041;-80
2022/04/10 11:17:28;;;;;;;4.90;1.55;;;15.00;56.30;;;;;;4925787;28;20405;-78
2022/04/10 11:20:05;;;;;;;2.50;1.10;;;15.10;55.90;;;;;;4941075;28;20061;-82
2022/04/10 11:22:34;;;;;;;4.75;1.67;;;15.20;55.60;;;;;;4942873;28;20541;-79
2022/04/10 11:25:07;;;;;;;2.42;1.30;;;15.10;56.10;;;;;;4963609;28;20038;-80
2022/04/10 11:27:43;;;;;;;5.53;1.60;;;15.20;56.30;;;;;;4944996;28;20065;-79
2022/04/10 11:30:13;;;;;;;4.13;1.40;;;15.30;55.80;;;;;;4939791;28;20174;-79
2022/04/10 11:32:47;;;;;;;4.50;1.65;;;15.40;55.80;;;;;;4954521;28;20114;-79
2022/04/10 11:35:20;;;;;;;4.05;1.40;;;15.40;55.20;;;;;;4949405;28;20045;-81
2022/04/10 11:37:47;;;;;;;4.03;1.55;;;15.50;55.50;;;;;;4959227;28;20046;-80
2022/04/10 11:40:14;;;;;;;4.07;1.50;;;15.60;55.40;;;;;;4931531;28;20036;-81
2022/04/10 11:42:39;;;;;;;4.32;1.40;;;15.70;55.20;;;;;;4935017;28;20668;-79
2022/04/10 11:45:06;;;;;;;4.57;1.38;;;15.90;54.80;;;;;;4936872;28;20046;-80
2022/04/10 11:47:32;;;;;;;3.72;1.33;;;16.00;54.60;;;;;;4932452;28;20088;-83
2022/04/10 11:49:58;;;;;;;6.82;1.42;;;16.00;54.50;;;;;;4957249;28;20035;-80
2022/04/10 11:52:23;;;;;;;4.18;1.60;;;16.00;54.30;;;;;;4927724;28;20034;-80
2022/04/10 11:54:52;;;;;;;2.28;1.80;;;15.90;53.80;;;;;;4953197;28;20042;-79
2022/04/10 11:57:17;;;;;;;5.20;1.98;;;16.00;53.60;;;;;;4902833;28;21841;-81
2022/04/10 11:59:43;;;;;;;4.72;1.80;;;15.90;53.50;;;;;;4964391;28;20046;-82
2022/04/10 12:02:12;;;;;;;5.18;1.77;;;15.90;53.20;;;;;;4959563;28;20038;-80
2022/04/10 12:04:38;;;;;;;2.42;1.70;;;15.90;52.80;;;;;;4935219;28;20448;-80
2022/04/10 12:07:15;;;;;;;8.32;4.18;;;15.80;52.80;;;;;;4938838;28;20075;-79
2022/04/10 12:09:41;;;;;;;8.80;3.63;;;15.80;52.40;;;;;;4986032;28;20120;-80
2022/04/10 12:12:07;;;;;;;9.48;4.25;;;15.70;53.00;;;;;;4932863;28;20038;-80
2022/04/10 12:14:33;;;;;;;5.03;2.30;;;15.70;52.90;;;;;;4964925;28;20563;-82
2022/04/10 12:16:58;;;;;;;9.02;4.72;;;15.60;52.70;;;;;;4949333;28;20038;-81
2022/04/10 12:19:36;;;;;;;57.85;28.38;;;15.50;52.70;;;;;;4962108;28;20461;-80
2022/04/10 12:22:03;;;;;;;59.85;27.48;;;15.60;52.30;;;;;;4917670;28;20039;-82
2022/04/10 12:24:29;;;;;;;8.75;3.88;;;15.80;52.80;;;;;;4947149;28;20138;-81
2022/04/10 12:26:54;;;;;;;17.27;7.97;;;15.90;52.60;;;;;;4926852;28;20081;-81
2022/04/10 12:29:20;;;;;;;6.07;3.00;;;16.10;52.50;;;;;;4933233;28;20574;-81
2022/04/10 12:31:46;;;;;;;5.13;2.38;;;16.20;52.20;;;;;;4945538;28;20048;-80
2022/04/10 12:34:13;;;;;;;4.35;2.00;;;16.20;51.70;;;;;;4964102;28;20046;-81
2022/04/10 12:36:46;;;;;;;5.28;1.90;;;16.20;51.50;;;;;;4947629;28;20081;-80
2022/04/10 12:39:22;;;;;;;2.42;1.40;;;16.10;51.10;;;;;;4924108;28;20051;-82
2022/04/10 12:41:56;;;;;;;5.43;1.70;;;15.90;51.00;;;;;;4954373;28;20520;-81
2022/04/10 12:44:24;;;;;;;4.20;1.75;;;15.80;51.50;;;;;;4946145;28;20038;-80
2022/04/10 12:46:50;;;;;;;4.20;1.27;;;15.90;51.50;;;;;;4959734;28;20042;-81
2022/04/10 12:49:17;;;;;;;2.72;1.42;;;16.00;52.30;;;;;;4961458;28;20047;-81
2022/04/10 12:52:05;;;;;;;4.40;1.20;;;16.20;51.50;;;;;;4977203;28;20030;-80
2022/04/10 12:54:38;;;;;;;4.22;1.30;;;16.30;50.30;;;;;;4979241;28;20030;-80
2022/04/10 12:57:11;;;;;;;3.03;1.50;;;16.30;50.80;;;;;;4934199;28;20374;-80